Terminal Aerodrome Forecast
Issued by NWS

Home | Current Version | Previous Version | Graphics & Text | Print | Product List | Glossary On
Versions: 1 2 3 4 5 6 7 8 9 10 11 12 13 14
698
FTUS43 KTOP 081127
TAFMHK
TAF
KMHK 081127Z 0812/0912 31012G24KT P6SM OVC070
     FM081400 33022G34KT P6SM SCT025 OVC035
     FM082300 33012G20KT P6SM BKN035
     FM090400 32009KT P6SM SCT040=

USA.gov is the U.S. government's official web portal to all federal, state and local government web resources and services.